createdAt,value
2018-09-23T00:01:01.183Z,100.00
2018-09-23T00:03:29.716Z,100.00
2018-09-23T00:05:58.260Z,100.00
2018-09-23T00:08:26.795Z,100.00
2018-09-23T00:10:57.261Z,100.00
2018-09-23T00:13:26.709Z,100.00
2018-09-23T00:15:55.244Z,100.00
2018-09-23T00:18:23.780Z,100.00
2018-09-23T00:20:52.324Z,100.00
2018-09-23T00:23:20.852Z,100.00
2018-09-23T00:25:49.387Z,100.00
2018-09-23T00:28:17.924Z,100.00
2018-09-23T00:30:46.463Z,100.00
2018-09-23T00:33:14.979Z,100.00
2018-09-23T00:35:43.667Z,100.00
2018-09-23T00:38:12.188Z,100.00
2018-09-23T00:40:40.912Z,100.00
2018-09-23T00:43:09.422Z,100.00
2018-09-23T00:45:37.944Z,100.00
2018-09-23T00:48:07.420Z,100.00
2018-09-23T00:50:35.946Z,100.00
2018-09-23T00:53:04.494Z,100.00
2018-09-23T00:55:33.007Z,100.00
2018-09-23T00:58:01.534Z,100.00
2018-09-23T01:00:30.087Z,100.00
2018-09-23T01:03:03.165Z,100.00
2018-09-23T01:05:31.682Z,100.00
2018-09-23T01:08:00.230Z,100.00
2018-09-23T01:10:28.758Z,100.00
2018-09-23T01:12:57.569Z,100.00
2018-09-23T01:15:26.075Z,100.00
2018-09-23T01:17:54.608Z,100.00
2018-09-23T01:20:23.149Z,100.00
2018-09-23T01:22:51.742Z,100.00
2018-09-23T01:25:20.263Z,100.00
2018-09-23T01:27:48.796Z,100.00
2018-09-23T01:30:17.326Z,100.00
2018-09-23T01:32:45.904Z,100.00
2018-09-23T01:35:14.416Z,100.00
2018-09-23T01:37:42.954Z,100.00
2018-09-23T01:40:11.485Z,100.00
2018-09-23T01:42:40.008Z,100.00
2018-09-23T01:45:08.537Z,100.00
2018-09-23T01:47:39.044Z,100.00
2018-09-23T01:50:07.572Z,100.00
2018-09-23T01:52:36.992Z,100.00
2018-09-23T01:55:08.640Z,100.00
2018-09-23T01:57:37.160Z,100.00
2018-09-23T02:00:06.705Z,100.00
2018-09-23T02:02:35.235Z,100.00
2018-09-23T02:05:03.775Z,100.00
2018-09-23T02:07:32.323Z,100.00
2018-09-23T02:10:00.856Z,100.00
2018-09-23T02:14:08.556Z,100.00
2018-09-23T02:16:37.096Z,100.00
2018-09-23T02:19:05.637Z,100.00
2018-09-23T02:21:34.185Z,100.00
2018-09-23T02:24:02.736Z,100.00
2018-09-23T02:26:31.255Z,100.00
2018-09-23T02:28:59.787Z,100.00
2018-09-23T02:31:28.395Z,100.00
2018-09-23T02:33:56.980Z,100.00
2018-09-23T02:36:25.521Z,100.00
2018-09-23T02:38:54.991Z,100.00
2018-09-23T02:41:23.527Z,100.00
2018-09-23T02:43:52.985Z,100.00
2018-09-23T02:46:21.681Z,100.00
2018-09-23T02:48:50.184Z,100.00
2018-09-23T02:51:18.845Z,100.00
2018-09-23T02:53:47.380Z,100.00
2018-09-23T02:56:16.856Z,100.00
2018-09-23T02:58:45.384Z,100.00
2018-09-23T03:01:13.951Z,100.00
2018-09-23T03:03:43.433Z,100.00
2018-09-23T03:06:11.959Z,100.00
2018-09-23T03:08:40.514Z,100.00
2018-09-23T03:11:09.027Z,100.00
2018-09-23T03:13:37.565Z,100.00
2018-09-23T03:16:06.114Z,100.00
2018-09-23T03:18:34.652Z,100.00
2018-09-23T03:21:03.184Z,100.00
2018-09-23T03:23:31.729Z,100.00
2018-09-23T03:26:00.272Z,100.00
2018-09-23T03:28:29.711Z,100.00
2018-09-23T03:30:58.240Z,100.00
2018-09-23T03:33:26.768Z,100.00
2018-09-23T03:35:55.299Z,100.00
2018-09-23T03:38:23.835Z,100.00
2018-09-23T03:40:52.395Z,100.00
2018-09-23T03:43:20.927Z,100.00
2018-09-23T03:45:49.575Z,100.00
2018-09-23T03:48:18.134Z,100.00
2018-09-23T03:50:46.633Z,100.00
2018-09-23T03:53:15.198Z,100.00
2018-09-23T03:55:43.699Z,100.00
2018-09-23T03:58:12.240Z,100.00
2018-09-23T04:00:41.784Z,100.00
2018-09-23T04:03:11.289Z,100.00
2018-09-23T04:05:39.924Z,100.00
2018-09-23T04:08:08.472Z,100.00
2018-09-23T04:10:37.001Z,100.00
2018-09-23T04:13:05.544Z,100.00
2018-09-23T04:15:34.107Z,100.00
2018-09-23T04:18:02.643Z,100.00
2018-09-23T04:20:32.121Z,100.00
2018-09-23T04:23:00.652Z,100.00
2018-09-23T04:25:29.195Z,100.00
2018-09-23T04:27:57.720Z,100.00
2018-09-23T04:30:26.271Z,100.00
2018-09-23T04:32:54.796Z,100.00
2018-09-23T04:35:23.340Z,100.00
2018-09-23T04:37:51.862Z,100.00
2018-09-23T04:40:20.394Z,100.00
2018-09-23T04:42:49.935Z,100.00
2018-09-23T04:45:18.459Z,100.00
2018-09-23T04:47:47.007Z,100.00
2018-09-23T04:50:15.544Z,100.00
2018-09-23T04:52:44.096Z,100.00
2018-09-23T04:55:12.626Z,100.00
2018-09-23T04:57:41.169Z,100.00
2018-09-23T05:00:09.691Z,100.00
2018-09-23T05:02:38.236Z,100.00
2018-09-23T05:05:08.756Z,100.00
2018-09-23T05:07:37.274Z,100.00
2018-09-23T05:10:05.805Z,100.00
2018-09-23T05:12:34.536Z,100.00
2018-09-23T05:15:04.045Z,100.00
2018-09-23T05:17:32.594Z,100.00
2018-09-23T05:20:01.182Z,100.00
2018-09-23T05:22:29.703Z,100.00
2018-09-23T05:24:58.241Z,100.00
2018-09-23T05:27:26.848Z,100.00
2018-09-23T05:29:55.371Z,100.00
2018-09-23T05:32:23.878Z,100.00
2018-09-23T05:34:52.434Z,100.00
2018-09-23T05:37:20.961Z,100.00
2018-09-23T05:39:51.457Z,100.00
2018-09-23T05:42:19.975Z,100.00
2018-09-23T05:44:48.519Z,100.00
2018-09-23T05:47:17.067Z,100.00
2018-09-23T05:49:45.614Z,100.00
2018-09-23T05:52:16.140Z,100.00
2018-09-23T05:54:49.428Z,100.00
2018-09-23T05:57:29.046Z,100.00
2018-09-23T06:00:06.867Z,100.00
2018-09-23T06:02:43.559Z,100.00
2018-09-23T06:05:23.166Z,100.00
2018-09-23T06:07:52.348Z,100.00
2018-09-23T06:10:20.943Z,100.00
2018-09-23T06:12:59.080Z,100.00
2018-09-23T06:15:27.616Z,100.00
2018-09-23T06:17:59.358Z,100.00
2018-09-23T06:20:27.885Z,100.00
2018-09-23T06:22:56.408Z,100.00
2018-09-23T06:25:24.942Z,100.00
2018-09-23T06:27:53.479Z,100.00
2018-09-23T06:30:22.019Z,100.00
2018-09-23T06:32:50.563Z,100.00
2018-09-23T06:35:19.097Z,100.00
2018-09-23T06:37:48.839Z,100.00
2018-09-23T06:40:17.355Z,100.00
2018-09-23T06:42:58.878Z,100.00
2018-09-23T06:45:36.014Z,100.00
2018-09-23T06:48:05.512Z,100.00
2018-09-23T06:50:34.040Z,100.00
2018-09-23T06:53:02.580Z,100.00
2018-09-23T06:55:31.110Z,100.00
2018-09-23T06:58:02.743Z,100.00
2018-09-23T07:00:31.250Z,100.00
2018-09-23T07:03:01.791Z,100.00
2018-09-23T07:05:37.997Z,100.00
2018-09-23T07:08:06.550Z,100.00
2018-09-23T07:10:38.343Z,100.00
2018-09-23T07:13:08.883Z,100.00
2018-09-23T07:15:37.413Z,100.00
2018-09-23T07:18:05.997Z,100.00
2018-09-23T07:20:34.605Z,100.00
2018-09-23T07:23:03.154Z,100.00
2018-09-23T07:25:31.854Z,98.43
2018-09-23T07:28:01.340Z,97.67
2018-09-23T07:30:29.912Z,98.87
2018-09-23T07:32:58.429Z,96.34
2018-09-23T07:35:34.979Z,96.75
2018-09-23T07:38:04.483Z,96.30
2018-09-23T07:40:33.028Z,95.35
2018-09-23T07:43:13.351Z,95.22
2018-09-23T07:45:42.858Z,93.09
2018-09-23T07:48:11.559Z,93.10
2018-09-23T07:50:39.986Z,91.63
2018-09-23T07:53:08.500Z,90.73
2018-09-23T07:55:37.031Z,91.92
2018-09-23T07:58:05.572Z,90.81
2018-09-23T08:00:34.086Z,90.93
2018-09-23T08:03:02.618Z,91.50
2018-09-23T08:05:31.247Z,93.74
2018-09-23T08:07:59.796Z,93.79
2018-09-23T08:10:30.257Z,92.22
2018-09-23T08:12:58.826Z,90.96
2018-09-23T08:15:28.246Z,90.55
2018-09-23T08:17:56.775Z,87.64
2018-09-23T08:20:25.591Z,85.58
2018-09-23T08:22:54.005Z,85.01
2018-09-23T08:25:25.907Z,84.48
2018-09-23T08:27:54.423Z,83.20
2018-09-23T08:30:22.955Z,84.38
2018-09-23T08:32:51.629Z,84.81
2018-09-23T08:35:20.136Z,85.79
2018-09-23T08:37:48.673Z,86.06
2018-09-23T08:40:17.305Z,84.48
2018-09-23T08:42:45.800Z,86.39
2018-09-23T08:45:14.317Z,79.54
2018-09-23T08:47:42.892Z,81.43
2018-09-23T08:50:11.507Z,80.55
2018-09-23T08:52:40.033Z,81.35
2018-09-23T08:55:09.554Z,81.98
2018-09-23T08:57:38.108Z,82.63
2018-09-23T09:00:06.585Z,83.83
2018-09-23T09:02:35.121Z,86.52
2018-09-23T09:05:03.631Z,85.90
2018-09-23T09:07:32.185Z,78.98
2018-09-23T09:10:00.724Z,77.27
2018-09-23T09:12:30.207Z,79.15
2018-09-23T09:14:58.741Z,78.96
2018-09-23T09:17:27.504Z,75.97
2018-09-23T09:19:56.044Z,70.53
2018-09-23T09:22:25.549Z,69.14
2018-09-23T09:24:56.081Z,69.06
2018-09-23T09:27:24.616Z,66.51
2018-09-23T09:29:53.152Z,65.96
2018-09-23T09:32:21.688Z,65.50
2018-09-23T09:34:50.237Z,67.87
2018-09-23T09:37:19.733Z,70.42
2018-09-23T09:39:49.248Z,72.74
2018-09-23T09:42:17.772Z,71.00
2018-09-23T09:44:46.320Z,72.33
2018-09-23T09:47:14.872Z,71.35
2018-09-23T09:49:43.394Z,69.56
2018-09-23T09:52:11.927Z,67.29
2018-09-23T09:54:40.459Z,67.45
2018-09-23T09:57:08.989Z,65.69
2018-09-23T09:59:37.514Z,63.37
2018-09-23T10:02:06.054Z,61.43
2018-09-23T10:04:34.591Z,60.74
2018-09-23T10:07:03.113Z,60.65
2018-09-23T10:09:31.680Z,64.71
2018-09-23T10:12:02.228Z,66.34
2018-09-23T10:14:30.748Z,62.95
2018-09-23T10:16:59.345Z,60.82
2018-09-23T10:19:27.843Z,61.68
2018-09-23T10:21:56.381Z,60.12
2018-09-23T10:24:25.145Z,60.16
2018-09-23T10:26:53.705Z,61.71
2018-09-23T10:29:22.229Z,63.83
2018-09-23T10:31:50.975Z,64.09
2018-09-23T10:34:19.432Z,62.72
2018-09-23T10:36:48.939Z,64.72
2018-09-23T10:39:17.490Z,63.41
2018-09-23T10:41:49.381Z,64.38
2018-09-23T10:44:17.915Z,61.08
2018-09-23T10:46:46.449Z,62.64
2018-09-23T10:49:15.957Z,63.08
2018-09-23T10:51:46.475Z,64.37
2018-09-23T10:54:15.039Z,63.76
2018-09-23T10:56:43.643Z,63.19
2018-09-23T10:59:14.099Z,64.45
2018-09-23T11:01:42.744Z,65.62
2018-09-23T11:04:12.216Z,65.12
2018-09-23T11:06:40.704Z,64.97
2018-09-23T11:09:09.491Z,63.74
2018-09-23T11:11:37.999Z,63.71
2018-09-23T11:14:08.236Z,62.59
2018-09-23T11:16:37.794Z,60.29
2018-09-23T11:19:06.324Z,57.84
2018-09-23T11:21:34.888Z,55.58
2018-09-23T11:24:04.383Z,53.82
2018-09-23T11:26:32.911Z,53.74
2018-09-23T11:29:01.453Z,52.55
2018-09-23T11:31:29.996Z,53.60
2018-09-23T11:33:58.532Z,52.57
2018-09-23T11:36:27.141Z,54.23
2018-09-23T11:38:56.628Z,54.87
2018-09-23T11:41:26.143Z,54.89
2018-09-23T11:43:54.686Z,58.56
2018-09-23T11:46:23.218Z,61.85
2018-09-23T11:48:52.647Z,60.99
2018-09-23T11:51:21.468Z,58.76
2018-09-23T11:53:49.997Z,58.85
2018-09-23T11:56:18.509Z,56.21
2018-09-23T11:58:47.126Z,53.50
2018-09-23T12:01:15.646Z,53.00
2018-09-23T12:03:45.165Z,52.75
2018-09-23T12:06:13.842Z,53.42
2018-09-23T12:08:42.390Z,53.22
2018-09-23T12:11:10.936Z,54.05
2018-09-23T12:13:40.754Z,52.12
2018-09-23T12:16:09.316Z,51.08
2018-09-23T12:18:37.857Z,51.27
2018-09-23T12:21:06.384Z,52.81
2018-09-23T12:23:34.917Z,52.75
2018-09-23T12:26:03.456Z,53.30
2018-09-23T12:28:32.992Z,52.91
2018-09-23T12:31:01.526Z,52.39
2018-09-23T12:33:31.201Z,50.41
2018-09-23T12:35:59.755Z,50.04
2018-09-23T12:38:28.352Z,52.37
2018-09-23T12:40:56.885Z,51.01
2018-09-23T12:43:25.414Z,49.79
2018-09-23T12:45:55.002Z,51.07
2018-09-23T12:48:23.515Z,50.76
2018-09-23T12:50:52.036Z,49.88
2018-09-23T12:53:20.690Z,49.46
2018-09-23T12:55:50.282Z,50.42
2018-09-23T12:58:18.839Z,46.32
2018-09-23T13:00:47.364Z,49.40
2018-09-23T13:03:16.927Z,51.03
2018-09-23T13:05:45.469Z,51.75
2018-09-23T13:08:14.893Z,51.58
2018-09-23T13:10:43.420Z,51.29
2018-09-23T13:13:12.897Z,50.08
2018-09-23T13:15:41.415Z,50.41
2018-09-23T13:18:10.033Z,49.37
2018-09-23T13:20:38.821Z,49.02
2018-09-23T13:23:07.411Z,49.89
2018-09-23T13:25:35.935Z,49.79
2018-09-23T13:28:04.475Z,52.21
2018-09-23T13:30:33.017Z,54.96
2018-09-23T13:33:06.750Z,54.11
2018-09-23T13:35:35.264Z,53.58
2018-09-23T13:38:04.842Z,55.16
2018-09-23T13:40:33.436Z,58.28
2018-09-23T13:43:04.012Z,59.85
2018-09-23T13:45:32.541Z,60.12
2018-09-23T13:48:02.062Z,61.11
2018-09-23T13:50:30.637Z,61.51
2018-09-23T13:53:00.129Z,62.56
2018-09-23T13:55:33.033Z,59.46
2018-09-23T13:58:02.520Z,58.30
2018-09-23T14:00:31.108Z,59.47
2018-09-23T14:02:59.728Z,60.47
2018-09-23T14:05:29.231Z,60.10
2018-09-23T14:07:57.759Z,60.52
2018-09-23T14:10:26.290Z,61.30
2018-09-23T14:12:54.812Z,61.01
2018-09-23T14:15:23.411Z,60.20
2018-09-23T14:17:52.047Z,60.49
2018-09-23T14:20:21.561Z,59.32
2018-09-23T14:22:50.090Z,59.42
2018-09-23T14:25:18.633Z,57.37
2018-09-23T14:27:47.174Z,58.99
2018-09-23T14:30:15.715Z,57.77
2018-09-23T14:32:44.254Z,57.30
2018-09-23T14:35:12.797Z,57.79
2018-09-23T14:37:41.324Z,58.07
2018-09-23T14:40:09.860Z,57.88
2018-09-23T14:42:38.389Z,57.64
2018-09-23T14:45:06.954Z,57.40
2018-09-23T14:47:35.500Z,57.41
2018-09-23T14:50:04.033Z,56.85
2018-09-23T14:52:32.568Z,55.83
2018-09-23T14:55:01.102Z,51.15
2018-09-23T14:57:29.620Z,47.99
2018-09-23T15:00:03.066Z,50.63
2018-09-23T15:02:27.832Z,51.01
2018-09-23T15:04:56.369Z,51.82
2018-09-23T15:07:24.932Z,53.33
2018-09-23T15:09:53.657Z,54.28
2018-09-23T15:12:22.360Z,56.57
2018-09-23T15:14:51.790Z,56.53
2018-09-23T15:17:21.771Z,55.74
2018-09-23T15:19:50.436Z,54.10
2018-09-23T15:22:20.865Z,54.37
2018-09-23T15:24:49.414Z,54.27
2018-09-23T15:27:17.935Z,54.61
2018-09-23T15:29:46.469Z,52.85
2018-09-23T15:32:15.012Z,53.62
2018-09-23T15:34:43.559Z,53.74
2018-09-23T15:37:12.344Z,53.74
2018-09-23T15:39:41.829Z,55.18
2018-09-23T15:42:10.389Z,54.70
2018-09-23T15:44:39.093Z,55.47
2018-09-23T15:47:15.269Z,56.13
2018-09-23T15:49:44.035Z,56.15
2018-09-23T15:52:12.652Z,56.53
2018-09-23T15:54:41.132Z,57.26
2018-09-23T15:57:09.664Z,57.50
2018-09-23T15:59:38.443Z,58.54
2018-09-23T16:02:07.111Z,58.73
2018-09-23T16:04:36.592Z,58.92
2018-09-23T16:07:05.136Z,59.55
2018-09-23T16:09:33.703Z,60.41
2018-09-23T16:12:03.261Z,62.01
2018-09-23T16:14:33.684Z,60.90
2018-09-23T16:17:02.220Z,60.41
2018-09-23T16:19:35.505Z,60.49
2018-09-23T16:22:04.051Z,60.27
2018-09-23T16:24:32.614Z,61.13
2018-09-23T16:27:03.081Z,61.37
2018-09-23T16:29:31.609Z,61.94
2018-09-23T16:32:00.151Z,61.11
2018-09-23T16:34:28.674Z,62.00
2018-09-23T16:36:57.201Z,62.09
2018-09-23T16:39:25.727Z,62.76
2018-09-23T16:41:54.248Z,61.44
2018-09-23T16:44:22.836Z,61.85
2018-09-23T16:46:52.316Z,61.56
2018-09-23T16:49:20.832Z,62.04
2018-09-23T16:51:49.535Z,61.65
2018-09-23T16:54:23.642Z,61.66
2018-09-23T16:56:52.171Z,62.39
2018-09-23T16:59:21.680Z,61.33
2018-09-23T17:01:54.275Z,61.33
2018-09-23T17:04:22.797Z,62.22
2018-09-23T17:06:51.350Z,61.30
2018-09-23T17:09:19.880Z,61.75
2018-09-23T17:11:48.460Z,62.58
2018-09-23T17:14:17.022Z,61.99
2018-09-23T17:16:45.550Z,62.43
2018-09-23T17:19:14.099Z,62.45
2018-09-23T17:21:43.599Z,62.69
2018-09-23T17:24:12.116Z,62.43
2018-09-23T17:26:40.722Z,62.27
2018-09-23T17:29:09.602Z,62.28
2018-09-23T17:31:41.054Z,62.85
2018-09-23T17:34:09.767Z,61.67
2018-09-23T17:36:38.809Z,62.21
2018-09-23T17:39:07.667Z,61.89
2018-09-23T17:41:36.267Z,62.17
2018-09-23T17:44:04.875Z,62.11
2018-09-23T17:46:35.408Z,62.82
2018-09-23T17:49:04.225Z,62.36
2018-09-23T17:51:32.820Z,61.86
2018-09-23T17:54:01.343Z,62.08
2018-09-23T17:56:29.875Z,61.99
2018-09-23T17:58:58.416Z,62.21
2018-09-23T18:01:26.945Z,61.72
2018-09-23T18:03:55.606Z,61.55
2018-09-23T18:06:24.154Z,62.79
2018-09-23T18:08:52.679Z,62.14
2018-09-23T18:11:21.291Z,62.11
2018-09-23T18:13:50.878Z,62.51
2018-09-23T18:16:19.462Z,62.48
2018-09-23T18:18:49.060Z,62.00
2018-09-23T18:21:17.620Z,62.80
2018-09-23T18:23:47.653Z,65.78
2018-09-23T18:26:17.273Z,67.20
2018-09-23T18:28:46.732Z,69.67
2018-09-23T18:31:15.277Z,71.73
2018-09-23T18:33:43.809Z,73.03
2018-09-23T18:36:13.483Z,74.71
2018-09-23T18:38:42.081Z,70.50
2018-09-23T18:41:10.649Z,70.77
2018-09-23T18:43:39.266Z,69.94
2018-09-23T18:46:07.807Z,70.18
2018-09-23T18:48:36.374Z,68.70
2018-09-23T18:51:07.047Z,68.50
2018-09-23T18:53:36.645Z,69.27
2018-09-23T18:56:05.239Z,72.18
2018-09-23T18:58:34.922Z,75.05
2018-09-23T19:01:03.240Z,81.86
2018-09-23T19:03:32.173Z,90.27
2018-09-23T19:06:01.677Z,93.54
2018-09-23T19:08:31.183Z,95.61
2018-09-23T19:11:00.703Z,98.12
2018-09-23T19:13:31.231Z,99.30
2018-09-23T19:15:59.743Z,100.00
2018-09-23T19:18:29.336Z,100.00
2018-09-23T19:20:58.879Z,100.00
2018-09-23T19:23:29.396Z,100.00
2018-09-23T19:25:57.921Z,100.00
2018-09-23T19:28:26.449Z,100.00
2018-09-23T19:30:54.964Z,100.00
2018-09-23T19:33:23.483Z,100.00
2018-09-23T19:35:52.037Z,100.00
2018-09-23T19:38:20.607Z,100.00
2018-09-23T19:40:49.137Z,100.00
2018-09-23T19:43:18.616Z,100.00
2018-09-23T19:45:48.092Z,100.00
2018-09-23T19:48:17.636Z,100.00
2018-09-23T19:50:46.224Z,100.00
2018-09-23T19:53:14.751Z,100.00
2018-09-23T19:55:43.557Z,100.00
2018-09-23T19:58:12.093Z,100.00
2018-09-23T20:00:41.627Z,100.00
2018-09-23T20:03:10.459Z,100.00
2018-09-23T20:05:38.988Z,100.00
2018-09-23T20:08:07.536Z,100.00
2018-09-23T20:10:36.980Z,100.00
2018-09-23T20:13:05.860Z,100.00
2018-09-23T20:15:34.423Z,100.00
2018-09-23T20:18:02.941Z,100.00
2018-09-23T20:20:31.464Z,100.00
2018-09-23T20:23:00.041Z,100.00
2018-09-23T20:25:30.441Z,100.00
2018-09-23T20:28:00.913Z,100.00
2018-09-23T20:30:31.090Z,100.00
2018-09-23T20:33:02.424Z,100.00
2018-09-23T20:35:36.498Z,100.00
2018-09-23T20:38:07.338Z,100.00
2018-09-23T20:40:37.834Z,100.00
2018-09-23T20:43:09.768Z,100.00
2018-09-23T20:45:42.238Z,100.00
2018-09-23T20:48:14.264Z,100.00
2018-09-23T20:50:47.736Z,100.00
2018-09-23T20:53:18.022Z,100.00
2018-09-23T20:55:50.050Z,100.00
2018-09-23T20:58:20.929Z,100.00
2018-09-23T21:00:49.547Z,100.00
2018-09-23T21:03:18.095Z,100.00
2018-09-23T21:05:46.695Z,100.00
2018-09-23T21:08:15.225Z,100.00
2018-09-23T21:10:43.765Z,100.00
2018-09-23T21:13:14.346Z,100.00
2018-09-23T21:15:47.381Z,100.00
2018-09-23T21:18:16.821Z,100.00
2018-09-23T21:20:45.341Z,100.00
2018-09-23T21:23:14.856Z,100.00
2018-09-23T21:25:43.436Z,100.00
2018-09-23T21:28:12.261Z,100.00
2018-09-23T21:30:40.822Z,100.00
2018-09-23T21:33:09.336Z,100.00
2018-09-23T21:35:38.284Z,100.00
2018-09-23T21:38:08.922Z,100.00
2018-09-23T21:40:39.447Z,100.00
2018-09-23T21:43:07.984Z,100.00
2018-09-23T21:45:36.519Z,100.00
2018-09-23T21:48:05.055Z,100.00
2018-09-23T21:50:33.596Z,100.00
2018-09-23T21:53:02.143Z,100.00
2018-09-23T21:55:30.702Z,100.00
2018-09-23T21:57:59.242Z,100.00
2018-09-23T22:00:27.903Z,100.00
2018-09-23T22:02:56.423Z,100.00
2018-09-23T22:05:25.098Z,100.00
2018-09-23T22:07:57.489Z,100.00
2018-09-23T22:10:26.019Z,100.00
2018-09-23T22:12:54.578Z,100.00
2018-09-23T22:15:23.096Z,100.00
2018-09-23T22:17:51.636Z,100.00
2018-09-23T22:20:20.154Z,100.00
2018-09-23T22:22:48.789Z,100.00
2018-09-23T22:25:17.295Z,100.00
2018-09-23T22:27:45.824Z,100.00
2018-09-23T22:30:14.463Z,100.00
2018-09-23T22:32:42.908Z,100.00
2018-09-23T22:35:11.429Z,100.00
2018-09-23T22:37:39.959Z,100.00
2018-09-23T22:40:08.493Z,100.00
2018-09-23T22:42:37.017Z,100.00
2018-09-23T22:45:08.986Z,100.00
2018-09-23T22:47:38.414Z,100.00
2018-09-23T22:50:06.976Z,100.00
2018-09-23T22:52:35.501Z,100.00
2018-09-23T22:55:04.083Z,100.00
2018-09-23T22:57:32.645Z,100.00
2018-09-23T23:00:01.154Z,100.00
2018-09-23T23:02:31.575Z,100.00
2018-09-23T23:05:00.115Z,100.00
2018-09-23T23:07:28.640Z,100.00
2018-09-23T23:09:57.159Z,100.00
2018-09-23T23:12:25.751Z,100.00
2018-09-23T23:14:54.289Z,100.00
2018-09-23T23:17:22.801Z,100.00
2018-09-23T23:19:51.315Z,100.00
2018-09-23T23:22:19.945Z,100.00
2018-09-23T23:24:49.456Z,100.00
2018-09-23T23:27:18.030Z,100.00
2018-09-23T23:29:46.564Z,100.00
2018-09-23T23:32:15.092Z,100.00
2018-09-23T23:34:43.682Z,100.00
2018-09-23T23:37:12.195Z,100.00
2018-09-23T23:39:40.727Z,100.00
2018-09-23T23:42:09.273Z,100.00
2018-09-23T23:44:37.780Z,100.00
2018-09-23T23:47:08.314Z,100.00
2018-09-23T23:49:37.947Z,100.00
2018-09-23T23:52:08.422Z,100.00
2018-09-23T23:54:37.003Z,100.00
2018-09-23T23:57:05.500Z,100.00
2018-09-23T23:59:34.016Z,100.00
